sensor_id;sensor_type;location;lat;lon;timestamp;temperature;humidity
6102;DHT22;3081;50.584;7.032;2022-08-16T00:01:54;20.30;97.20
6102;DHT22;3081;50.584;7.032;2022-08-16T00:04:22;20.30;97.20
6102;DHT22;3081;50.584;7.032;2022-08-16T00:06:49;20.20;97.30
6102;DHT22;3081;50.584;7.032;2022-08-16T00:09:16;20.30;97.30
6102;DHT22;3081;50.584;7.032;2022-08-16T00:11:44;20.20;97.40
6102;DHT22;3081;50.584;7.032;2022-08-16T00:14:14;20.20;97.40
6102;DHT22;3081;50.584;7.032;2022-08-16T00:16:41;20.20;97.50
6102;DHT22;3081;50.584;7.032;2022-08-16T00:19:09;20.20;97.50
6102;DHT22;3081;50.584;7.032;2022-08-16T00:21:37;20.30;97.50
6102;DHT22;3081;50.584;7.032;2022-08-16T00:24:04;20.30;97.50
6102;DHT22;3081;50.584;7.032;2022-08-16T00:26:31;20.30;97.60
6102;DHT22;3081;50.584;7.032;2022-08-16T00:28:58;20.30;97.60
6102;DHT22;3081;50.584;7.032;2022-08-16T00:31:25;20.30;97.50
6102;DHT22;3081;50.584;7.032;2022-08-16T00:33:52;20.30;97.50
6102;DHT22;3081;50.584;7.032;2022-08-16T00:36:19;20.30;97.50
6102;DHT22;3081;50.584;7.032;2022-08-16T00:38:48;20.30;97.90
6102;DHT22;3081;50.584;7.032;2022-08-16T00:41:15;20.30;97.50
6102;DHT22;3081;50.584;7.032;2022-08-16T00:43:42;20.30;97.60
6102;DHT22;3081;50.584;7.032;2022-08-16T00:46:11;20.30;97.50
6102;DHT22;3081;50.584;7.032;2022-08-16T00:48:40;20.30;97.60
6102;DHT22;3081;50.584;7.032;2022-08-16T00:51:10;20.30;97.60
6102;DHT22;3081;50.584;7.032;2022-08-16T00:53:37;20.30;97.70
6102;DHT22;3081;50.584;7.032;2022-08-16T00:56:09;20.30;97.80
6102;DHT22;3081;50.584;7.032;2022-08-16T00:58:41;20.30;97.90
6102;DHT22;3081;50.584;7.032;2022-08-16T01:01:09;20.30;97.90
6102;DHT22;3081;50.584;7.032;2022-08-16T01:03:38;20.30;97.90
6102;DHT22;3081;50.584;7.032;2022-08-16T01:06:06;20.30;97.80
6102;DHT22;3081;50.584;7.032;2022-08-16T01:08:35;20.30;97.60
6102;DHT22;3081;50.584;7.032;2022-08-16T01:11:03;20.50;97.50
6102;DHT22;3081;50.584;7.032;2022-08-16T01:13:34;20.60;97.10
6102;DHT22;3081;50.584;7.032;2022-08-16T01:16:06;20.70;96.80
6102;DHT22;3081;50.584;7.032;2022-08-16T01:18:36;20.80;96.50
6102;DHT22;3081;50.584;7.032;2022-08-16T01:21:14;20.90;96.30
6102;DHT22;3081;50.584;7.032;2022-08-16T01:24:14;20.90;96.20
6102;DHT22;3081;50.584;7.032;2022-08-16T01:26:44;20.90;96.00
6102;DHT22;3081;50.584;7.032;2022-08-16T01:29:15;21.10;95.80
6102;DHT22;3081;50.584;7.032;2022-08-16T01:31:43;21.20;95.50
6102;DHT22;3081;50.584;7.032;2022-08-16T01:34:12;21.30;95.20
6102;DHT22;3081;50.584;7.032;2022-08-16T01:36:40;21.40;95.00
6102;DHT22;3081;50.584;7.032;2022-08-16T01:39:12;21.50;94.70
6102;DHT22;3081;50.584;7.032;2022-08-16T01:41:41;21.50;94.60
6102;DHT22;3081;50.584;7.032;2022-08-16T01:44:09;21.50;94.60
6102;DHT22;3081;50.584;7.032;2022-08-16T01:46:38;21.40;94.50
6102;DHT22;3081;50.584;7.032;2022-08-16T01:49:09;21.40;94.60
6102;DHT22;3081;50.584;7.032;2022-08-16T01:51:38;21.30;95.00
6102;DHT22;3081;50.584;7.032;2022-08-16T01:54:06;21.30;94.80
6102;DHT22;3081;50.584;7.032;2022-08-16T01:56:33;21.20;94.70
6102;DHT22;3081;50.584;7.032;2022-08-16T01:59:04;21.20;94.70
6102;DHT22;3081;50.584;7.032;2022-08-16T02:01:33;21.20;94.70
6102;DHT22;3081;50.584;7.032;2022-08-16T02:04:00;21.20;94.70
6102;DHT22;3081;50.584;7.032;2022-08-16T02:06:27;21.10;94.90
6102;DHT22;3081;50.584;7.032;2022-08-16T02:08:54;21.00;95.10
6102;DHT22;3081;50.584;7.032;2022-08-16T02:11:23;20.90;95.50
6102;DHT22;3081;50.584;7.032;2022-08-16T02:13:50;20.70;95.90
6102;DHT22;3081;50.584;7.032;2022-08-16T02:16:18;20.60;96.50
6102;DHT22;3081;50.584;7.032;2022-08-16T02:18:46;20.40;97.00
6102;DHT22;3081;50.584;7.032;2022-08-16T02:21:14;20.20;97.60
6102;DHT22;3081;50.584;7.032;2022-08-16T02:23:41;20.00;97.90
6102;DHT22;3081;50.584;7.032;2022-08-16T02:26:08;20.00;98.30
6102;DHT22;3081;50.584;7.032;2022-08-16T02:28:35;19.90;98.50
6102;DHT22;3081;50.584;7.032;2022-08-16T02:31:06;19.80;98.90
6102;DHT22;3081;50.584;7.032;2022-08-16T02:33:35;19.80;99.10
6102;DHT22;3081;50.584;7.032;2022-08-16T02:36:02;19.70;99.40
6102;DHT22;3081;50.584;7.032;2022-08-16T02:38:30;19.60;99.60
6102;DHT22;3081;50.584;7.032;2022-08-16T02:40:59;19.60;99.90
6102;DHT22;3081;50.584;7.032;2022-08-16T02:43:28;19.50;99.90
6102;DHT22;3081;50.584;7.032;2022-08-16T02:45:56;19.40;99.90
6102;DHT22;3081;50.584;7.032;2022-08-16T02:48:24;19.40;99.90
6102;DHT22;3081;50.584;7.032;2022-08-16T02:50:53;19.30;99.90
6102;DHT22;3081;50.584;7.032;2022-08-16T02:53:22;19.30;99.90
6102;DHT22;3081;50.584;7.032;2022-08-16T02:55:49;19.30;99.90
6102;DHT22;3081;50.584;7.032;2022-08-16T02:58:17;19.20;99.90
6102;DHT22;3081;50.584;7.032;2022-08-16T03:00:44;19.20;99.90
6102;DHT22;3081;50.584;7.032;2022-08-16T03:03:11;19.20;99.90
6102;DHT22;3081;50.584;7.032;2022-08-16T03:05:38;19.20;99.90
6102;DHT22;3081;50.584;7.032;2022-08-16T03:08:07;19.10;99.90
6102;DHT22;3081;50.584;7.032;2022-08-16T03:10:35;19.20;99.90
6102;DHT22;3081;50.584;7.032;2022-08-16T03:13:02;19.20;99.90
6102;DHT22;3081;50.584;7.032;2022-08-16T03:15:31;19.20;99.90
6102;DHT22;3081;50.584;7.032;2022-08-16T03:17:58;19.20;99.90
6102;DHT22;3081;50.584;7.032;2022-08-16T03:20:25;19.30;99.90
6102;DHT22;3081;50.584;7.032;2022-08-16T03:22:52;19.50;99.90
6102;DHT22;3081;50.584;7.032;2022-08-16T03:25:21;19.70;99.90
6102;DHT22;3081;50.584;7.032;2022-08-16T03:27:48;19.70;99.90
6102;DHT22;3081;50.584;7.032;2022-08-16T03:30:17;19.80;99.90
6102;DHT22;3081;50.584;7.032;2022-08-16T03:32:44;19.90;99.90
6102;DHT22;3081;50.584;7.032;2022-08-16T03:35:11;19.90;99.90
6102;DHT22;3081;50.584;7.032;2022-08-16T03:37:38;19.80;99.90
6102;DHT22;3081;50.584;7.032;2022-08-16T03:40:09;19.70;99.90
6102;DHT22;3081;50.584;7.032;2022-08-16T03:42:38;19.70;99.90
6102;DHT22;3081;50.584;7.032;2022-08-16T03:45:06;19.60;99.90
6102;DHT22;3081;50.584;7.032;2022-08-16T03:47:33;19.60;99.90
6102;DHT22;3081;50.584;7.032;2022-08-16T03:50:00;19.60;99.90
6102;DHT22;3081;50.584;7.032;2022-08-16T03:52:28;19.50;99.90
6102;DHT22;3081;50.584;7.032;2022-08-16T03:54:55;19.40;99.90
6102;DHT22;3081;50.584;7.032;2022-08-16T03:57:22;19.40;99.90
6102;DHT22;3081;50.584;7.032;2022-08-16T03:59:50;19.30;99.90
6102;DHT22;3081;50.584;7.032;2022-08-16T04:02:17;19.40;99.90
6102;DHT22;3081;50.584;7.032;2022-08-16T04:04:44;19.30;99.90
6102;DHT22;3081;50.584;7.032;2022-08-16T04:07:11;19.20;99.90
6102;DHT22;3081;50.584;7.032;2022-08-16T04:09:38;19.20;99.90
6102;DHT22;3081;50.584;7.032;2022-08-16T04:12:06;19.20;99.90
6102;DHT22;3081;50.584;7.032;2022-08-16T04:14:34;19.10;99.90
6102;DHT22;3081;50.584;7.032;2022-08-16T04:17:03;19.10;99.90
6102;DHT22;3081;50.584;7.032;2022-08-16T04:19:30;19.00;99.90
6102;DHT22;3081;50.584;7.032;2022-08-16T04:22:00;19.00;99.90
6102;DHT22;3081;50.584;7.032;2022-08-16T04:24:27;19.00;99.90
6102;DHT22;3081;50.584;7.032;2022-08-16T04:26:54;19.00;99.90
6102;DHT22;3081;50.584;7.032;2022-08-16T04:29:21;18.90;99.90
6102;DHT22;3081;50.584;7.032;2022-08-16T04:31:48;19.00;99.90
6102;DHT22;3081;50.584;7.032;2022-08-16T04:34:17;18.90;99.90
6102;DHT22;3081;50.584;7.032;2022-08-16T04:36:44;18.90;99.90
6102;DHT22;3081;50.584;7.032;2022-08-16T04:39:11;18.90;99.90
6102;DHT22;3081;50.584;7.032;2022-08-16T04:41:38;18.90;99.90
6102;DHT22;3081;50.584;7.032;2022-08-16T04:44:05;18.80;99.90
6102;DHT22;3081;50.584;7.032;2022-08-16T04:46:32;18.80;99.90
6102;DHT22;3081;50.584;7.032;2022-08-16T04:48:59;18.80;99.90
6102;DHT22;3081;50.584;7.032;2022-08-16T04:51:28;18.70;99.90
6102;DHT22;3081;50.584;7.032;2022-08-16T04:53:55;18.70;99.90
6102;DHT22;3081;50.584;7.032;2022-08-16T04:56:22;18.70;99.90
6102;DHT22;3081;50.584;7.032;2022-08-16T04:58:49;18.60;99.90
6102;DHT22;3081;50.584;7.032;2022-08-16T05:01:17;18.60;99.90
6102;DHT22;3081;50.584;7.032;2022-08-16T05:03:44;18.60;99.90
6102;DHT22;3081;50.584;7.032;2022-08-16T05:06:11;18.60;99.90
6102;DHT22;3081;50.584;7.032;2022-08-16T05:08:40;18.60;99.90
6102;DHT22;3081;50.584;7.032;2022-08-16T05:11:09;18.60;99.90
6102;DHT22;3081;50.584;7.032;2022-08-16T05:13:39;18.70;99.90
6102;DHT22;3081;50.584;7.032;2022-08-16T05:16:06;18.70;99.90
6102;DHT22;3081;50.584;7.032;2022-08-16T05:18:35;18.70;99.90
6102;DHT22;3081;50.584;7.032;2022-08-16T05:21:02;18.80;99.90
6102;DHT22;3081;50.584;7.032;2022-08-16T05:23:29;18.90;99.90
6102;DHT22;3081;50.584;7.032;2022-08-16T05:25:58;19.10;99.90
6102;DHT22;3081;50.584;7.032;2022-08-16T05:28:25;19.20;99.90
6102;DHT22;3081;50.584;7.032;2022-08-16T05:30:52;19.30;99.90
6102;DHT22;3081;50.584;7.032;2022-08-16T05:33:19;19.40;99.90
6102;DHT22;3081;50.584;7.032;2022-08-16T05:35:47;19.50;99.90
6102;DHT22;3081;50.584;7.032;2022-08-16T05:38:15;19.60;99.90
6102;DHT22;3081;50.584;7.032;2022-08-16T05:40:42;19.80;99.90
6102;DHT22;3081;50.584;7.032;2022-08-16T05:43:10;19.80;99.90
6102;DHT22;3081;50.584;7.032;2022-08-16T05:45:37;19.90;99.90
6102;DHT22;3081;50.584;7.032;2022-08-16T05:48:04;20.00;99.90
6102;DHT22;3081;50.584;7.032;2022-08-16T05:50:31;20.10;99.90
6102;DHT22;3081;50.584;7.032;2022-08-16T05:52:58;20.20;99.90
6102;DHT22;3081;50.584;7.032;2022-08-16T05:55:25;20.20;99.90
6102;DHT22;3081;50.584;7.032;2022-08-16T05:57:52;20.30;99.90
6102;DHT22;3081;50.584;7.032;2022-08-16T06:00:21;20.30;99.90
6102;DHT22;3081;50.584;7.032;2022-08-16T06:02:48;20.40;99.90
6102;DHT22;3081;50.584;7.032;2022-08-16T06:05:15;20.40;99.90
6102;DHT22;3081;50.584;7.032;2022-08-16T06:07:42;20.40;99.90
6102;DHT22;3081;50.584;7.032;2022-08-16T06:10:09;20.40;99.90
6102;DHT22;3081;50.584;7.032;2022-08-16T06:12:37;20.50;99.90
6102;DHT22;3081;50.584;7.032;2022-08-16T06:15:06;20.50;99.90
6102;DHT22;3081;50.584;7.032;2022-08-16T06:17:35;20.50;99.90
6102;DHT22;3081;50.584;7.032;2022-08-16T06:20:03;20.50;99.90
6102;DHT22;3081;50.584;7.032;2022-08-16T06:22:31;20.50;99.90
6102;DHT22;3081;50.584;7.032;2022-08-16T06:24:58;20.50;99.90
6102;DHT22;3081;50.584;7.032;2022-08-16T06:27:25;20.50;99.90
6102;DHT22;3081;50.584;7.032;2022-08-16T06:29:52;20.50;99.90
6102;DHT22;3081;50.584;7.032;2022-08-16T06:32:19;20.60;99.90
6102;DHT22;3081;50.584;7.032;2022-08-16T06:34:47;20.70;99.90
6102;DHT22;3081;50.584;7.032;2022-08-16T06:37:15;20.80;99.90
6102;DHT22;3081;50.584;7.032;2022-08-16T06:39:42;20.90;99.90
6102;DHT22;3081;50.584;7.032;2022-08-16T06:42:09;21.00;99.90
6102;DHT22;3081;50.584;7.032;2022-08-16T06:44:36;21.00;99.90
6102;DHT22;3081;50.584;7.032;2022-08-16T06:47:03;21.10;99.90
6102;DHT22;3081;50.584;7.032;2022-08-16T06:49:30;21.30;99.90
6102;DHT22;3081;50.584;7.032;2022-08-16T06:51:58;21.30;99.90
6102;DHT22;3081;50.584;7.032;2022-08-16T06:54:25;21.40;99.90
6102;DHT22;3081;50.584;7.032;2022-08-16T06:56:52;21.50;99.90
6102;DHT22;3081;50.584;7.032;2022-08-16T06:59:19;21.50;99.90
6102;DHT22;3081;50.584;7.032;2022-08-16T07:01:46;21.60;99.90
6102;DHT22;3081;50.584;7.032;2022-08-16T07:04:13;21.70;99.90
6102;DHT22;3081;50.584;7.032;2022-08-16T07:06:41;21.70;99.90
6102;DHT22;3081;50.584;7.032;2022-08-16T07:09:09;21.80;99.90
6102;DHT22;3081;50.584;7.032;2022-08-16T07:11:37;21.80;99.90
6102;DHT22;3081;50.584;7.032;2022-08-16T07:14:04;21.90;99.80
6102;DHT22;3081;50.584;7.032;2022-08-16T07:16:31;21.90;99.70
6102;DHT22;3081;50.584;7.032;2022-08-16T07:18:59;22.00;99.40
6102;DHT22;3081;50.584;7.032;2022-08-16T07:21:26;22.10;99.00
6102;DHT22;3081;50.584;7.032;2022-08-16T07:23:53;22.20;98.80
6102;DHT22;3081;50.584;7.032;2022-08-16T07:26:22;22.30;98.20
6102;DHT22;3081;50.584;7.032;2022-08-16T07:28:50;22.40;98.10
6102;DHT22;3081;50.584;7.032;2022-08-16T07:31:18;22.50;98.00
6102;DHT22;3081;50.584;7.032;2022-08-16T07:33:45;22.50;97.70
6102;DHT22;3081;50.584;7.032;2022-08-16T07:36:13;22.60;97.00
6102;DHT22;3081;50.584;7.032;2022-08-16T07:38:42;22.70;96.80
6102;DHT22;3081;50.584;7.032;2022-08-16T07:41:09;22.80;96.80
6102;DHT22;3081;50.584;7.032;2022-08-16T07:43:38;23.00;96.40
6102;DHT22;3081;50.584;7.032;2022-08-16T07:46:05;23.10;95.80
6102;DHT22;3081;50.584;7.032;2022-08-16T07:48:32;23.30;95.60
6102;DHT22;3081;50.584;7.032;2022-08-16T07:50:59;23.40;95.00
6102;DHT22;3081;50.584;7.032;2022-08-16T07:53:27;23.50;94.60
6102;DHT22;3081;50.584;7.032;2022-08-16T07:55:54;23.50;93.90
6102;DHT22;3081;50.584;7.032;2022-08-16T07:58:21;23.60;94.30
6102;DHT22;3081;50.584;7.032;2022-08-16T08:00:49;23.80;94.10
6102;DHT22;3081;50.584;7.032;2022-08-16T08:03:16;23.90;93.90
6102;DHT22;3081;50.584;7.032;2022-08-16T08:05:43;23.90;93.20
6102;DHT22;3081;50.584;7.032;2022-08-16T08:08:10;24.00;92.90
6102;DHT22;3081;50.584;7.032;2022-08-16T08:10:38;24.00;92.60
6102;DHT22;3081;50.584;7.032;2022-08-16T08:13:05;24.00;92.50
6102;DHT22;3081;50.584;7.032;2022-08-16T08:15:32;24.10;92.20
6102;DHT22;3081;50.584;7.032;2022-08-16T08:18:01;24.20;91.80
6102;DHT22;3081;50.584;7.032;2022-08-16T08:20:28;24.30;91.30
6102;DHT22;3081;50.584;7.032;2022-08-16T08:22:56;24.30;90.90
6102;DHT22;3081;50.584;7.032;2022-08-16T08:25:24;24.50;91.30
6102;DHT22;3081;50.584;7.032;2022-08-16T08:27:51;24.60;91.00
6102;DHT22;3081;50.584;7.032;2022-08-16T08:30:18;24.70;90.70
6102;DHT22;3081;50.584;7.032;2022-08-16T08:32:45;24.80;90.40
6102;DHT22;3081;50.584;7.032;2022-08-16T08:35:14;24.90;90.00
6102;DHT22;3081;50.584;7.032;2022-08-16T08:37:41;25.00;88.00
6102;DHT22;3081;50.584;7.032;2022-08-16T08:40:10;25.10;88.40
6102;DHT22;3081;50.584;7.032;2022-08-16T08:42:37;25.20;87.10
6102;DHT22;3081;50.584;7.032;2022-08-16T08:45:06;25.40;86.30
6102;DHT22;3081;50.584;7.032;2022-08-16T08:47:34;25.50;85.80
6102;DHT22;3081;50.584;7.032;2022-08-16T08:50:02;25.50;85.30
6102;DHT22;3081;50.584;7.032;2022-08-16T08:52:30;25.60;85.80
6102;DHT22;3081;50.584;7.032;2022-08-16T08:54:57;25.80;85.60
6102;DHT22;3081;50.584;7.032;2022-08-16T08:57:29;26.00;84.50
6102;DHT22;3081;50.584;7.032;2022-08-16T08:59:56;26.10;84.10
6102;DHT22;3081;50.584;7.032;2022-08-16T09:02:23;26.30;84.10
6102;DHT22;3081;50.584;7.032;2022-08-16T09:04:50;26.60;83.50
6102;DHT22;3081;50.584;7.032;2022-08-16T09:07:18;27.00;83.20
6102;DHT22;3081;50.584;7.032;2022-08-16T09:09:48;27.60;82.70
6102;DHT22;3081;50.584;7.032;2022-08-16T09:12:15;28.40;80.00
6102;DHT22;3081;50.584;7.032;2022-08-16T09:14:43;29.30;76.60
6102;DHT22;3081;50.584;7.032;2022-08-16T09:17:11;30.30;73.50
6102;DHT22;3081;50.584;7.032;2022-08-16T09:19:38;31.50;70.50
6102;DHT22;3081;50.584;7.032;2022-08-16T09:22:06;32.90;64.80
6102;DHT22;3081;50.584;7.032;2022-08-16T09:24:34;33.90;60.40
6102;DHT22;3081;50.584;7.032;2022-08-16T09:27:03;34.60;58.50
6102;DHT22;3081;50.584;7.032;2022-08-16T09:29:30;35.30;56.20
6102;DHT22;3081;50.584;7.032;2022-08-16T09:31:57;35.80;55.00
6102;DHT22;3081;50.584;7.032;2022-08-16T09:34:25;36.10;53.30
6102;DHT22;3081;50.584;7.032;2022-08-16T09:36:52;36.20;53.10
6102;DHT22;3081;50.584;7.032;2022-08-16T09:39:20;36.70;52.30
6102;DHT22;3081;50.584;7.032;2022-08-16T09:41:47;37.10;51.10
6102;DHT22;3081;50.584;7.032;2022-08-16T09:44:17;37.50;50.00
6102;DHT22;3081;50.584;7.032;2022-08-16T09:46:45;37.50;49.20
6102;DHT22;3081;50.584;7.032;2022-08-16T09:49:12;37.70;48.30
6102;DHT22;3081;50.584;7.032;2022-08-16T09:51:39;38.20;47.70
6102;DHT22;3081;50.584;7.032;2022-08-16T09:54:06;38.50;46.50
6102;DHT22;3081;50.584;7.032;2022-08-16T09:56:37;38.80;46.70
6102;DHT22;3081;50.584;7.032;2022-08-16T09:59:06;39.00;46.00
6102;DHT22;3081;50.584;7.032;2022-08-16T10:01:35;39.10;46.30
6102;DHT22;3081;50.584;7.032;2022-08-16T10:04:03;39.30;45.40
6102;DHT22;3081;50.584;7.032;2022-08-16T10:06:31;39.30;45.40
6102;DHT22;3081;50.584;7.032;2022-08-16T10:08:58;39.20;44.90
6102;DHT22;3081;50.584;7.032;2022-08-16T10:11:25;39.40;44.90
6102;DHT22;3081;50.584;7.032;2022-08-16T10:14:09;39.00;44.80
6102;DHT22;3081;50.584;7.032;2022-08-16T10:16:38;39.00;45.00
6102;DHT22;3081;50.584;7.032;2022-08-16T10:19:04;39.40;44.80
6102;DHT22;3081;50.584;7.032;2022-08-16T10:21:31;39.50;43.90
6102;DHT22;3081;50.584;7.032;2022-08-16T10:23:59;39.30;44.30
6102;DHT22;3081;50.584;7.032;2022-08-16T10:26:25;39.90;43.00
6102;DHT22;3081;50.584;7.032;2022-08-16T10:28:54;40.10;42.40
6102;DHT22;3081;50.584;7.032;2022-08-16T10:31:21;40.40;42.10
6102;DHT22;3081;50.584;7.032;2022-08-16T10:33:49;40.40;42.40
6102;DHT22;3081;50.584;7.032;2022-08-16T10:36:16;40.40;42.10
6102;DHT22;3081;50.584;7.032;2022-08-16T10:38:43;40.40;41.60
6102;DHT22;3081;50.584;7.032;2022-08-16T10:41:10;40.40;41.80
6102;DHT22;3081;50.584;7.032;2022-08-16T10:43:40;40.40;41.60
6102;DHT22;3081;50.584;7.032;2022-08-16T10:46:10;40.30;41.80
6102;DHT22;3081;50.584;7.032;2022-08-16T10:48:38;40.50;41.10
6102;DHT22;3081;50.584;7.032;2022-08-16T10:51:06;40.10;41.00
6102;DHT22;3081;50.584;7.032;2022-08-16T10:53:35;39.00;41.90
6102;DHT22;3081;50.584;7.032;2022-08-16T10:56:04;37.90;43.40
6102;DHT22;3081;50.584;7.032;2022-08-16T10:58:32;36.70;45.10
6102;DHT22;3081;50.584;7.032;2022-08-16T11:00:59;36.30;46.60
6102;DHT22;3081;50.584;7.032;2022-08-16T11:03:26;36.10;46.50
6102;DHT22;3081;50.584;7.032;2022-08-16T11:05:54;36.10;46.50
6102;DHT22;3081;50.584;7.032;2022-08-16T11:08:22;36.40;45.60
6102;DHT22;3081;50.584;7.032;2022-08-16T11:10:49;35.70;45.80
6102;DHT22;3081;50.584;7.032;2022-08-16T11:13:19;35.10;46.60
6102;DHT22;3081;50.584;7.032;2022-08-16T11:15:46;34.50;47.50
6102;DHT22;3081;50.584;7.032;2022-08-16T11:18:13;33.90;48.10
6102;DHT22;3081;50.584;7.032;2022-08-16T11:20:41;33.50;48.70
6102;DHT22;3081;50.584;7.032;2022-08-16T11:23:08;33.10;49.40
6102;DHT22;3081;50.584;7.032;2022-08-16T11:25:37;32.70;50.20
6102;DHT22;3081;50.584;7.032;2022-08-16T11:28:05;32.60;50.40
6102;DHT22;3081;50.584;7.032;2022-08-16T11:30:33;32.40;50.70
6102;DHT22;3081;50.584;7.032;2022-08-16T11:33:00;32.20;51.00
6102;DHT22;3081;50.584;7.032;2022-08-16T11:35:30;32.00;51.20
6102;DHT22;3081;50.584;7.032;2022-08-16T11:38:00;32.00;51.20
6102;DHT22;3081;50.584;7.032;2022-08-16T11:40:30;32.20;51.20
6102;DHT22;3081;50.584;7.032;2022-08-16T11:43:00;32.80;50.90
6102;DHT22;3081;50.584;7.032;2022-08-16T11:45:27;33.30;49.80
6102;DHT22;3081;50.584;7.032;2022-08-16T11:47:54;33.30;49.10
6102;DHT22;3081;50.584;7.032;2022-08-16T11:50:21;33.00;49.40
6102;DHT22;3081;50.584;7.032;2022-08-16T11:52:49;32.70;49.90
6102;DHT22;3081;50.584;7.032;2022-08-16T11:55:16;32.60;50.60
6102;DHT22;3081;50.584;7.032;2022-08-16T11:57:43;32.50;50.50
6102;DHT22;3081;50.584;7.032;2022-08-16T12:00:14;32.40;50.60
6102;DHT22;3081;50.584;7.032;2022-08-16T12:02:41;32.30;50.80
6102;DHT22;3081;50.584;7.032;2022-08-16T12:05:11;32.30;50.60
6102;DHT22;3081;50.584;7.032;2022-08-16T12:07:39;32.40;50.30
6102;DHT22;3081;50.584;7.032;2022-08-16T12:10:08;32.60;50.20
6102;DHT22;3081;50.584;7.032;2022-08-16T12:12:36;33.60;49.70
6102;DHT22;3081;50.584;7.032;2022-08-16T12:15:04;35.30;47.60
6102;DHT22;3081;50.584;7.032;2022-08-16T12:17:33;37.10;45.20
6102;DHT22;3081;50.584;7.032;2022-08-16T12:20:01;38.00;43.20
6102;DHT22;3081;50.584;7.032;2022-08-16T12:22:29;38.90;42.30
6102;DHT22;3081;50.584;7.032;2022-08-16T12:24:56;40.20;40.90
6102;DHT22;3081;50.584;7.032;2022-08-16T12:27:24;41.00;39.50
6102;DHT22;3081;50.584;7.032;2022-08-16T12:29:51;41.70;38.00
6102;DHT22;3081;50.584;7.032;2022-08-16T12:32:18;41.60;37.40
6102;DHT22;3081;50.584;7.032;2022-08-16T12:34:47;39.90;38.60
6102;DHT22;3081;50.584;7.032;2022-08-16T12:37:14;38.20;40.30
6102;DHT22;3081;50.584;7.032;2022-08-16T12:39:41;37.50;41.10
6102;DHT22;3081;50.584;7.032;2022-08-16T12:42:09;36.90;41.80
6102;DHT22;3081;50.584;7.032;2022-08-16T12:44:36;36.40;43.00
6102;DHT22;3081;50.584;7.032;2022-08-16T12:47:04;36.40;43.90
6102;DHT22;3081;50.584;7.032;2022-08-16T12:49:50;36.50;43.80
6102;DHT22;3081;50.584;7.032;2022-08-16T12:52:17;37.40;42.90
6102;DHT22;3081;50.584;7.032;2022-08-16T12:54:44;38.40;41.00
6102;DHT22;3081;50.584;7.032;2022-08-16T12:57:11;39.80;40.30
6102;DHT22;3081;50.584;7.032;2022-08-16T12:59:39;41.10;37.50
6102;DHT22;3081;50.584;7.032;2022-08-16T13:02:07;41.80;37.10
6102;DHT22;3081;50.584;7.032;2022-08-16T13:04:34;42.00;36.40
6102;DHT22;3081;50.584;7.032;2022-08-16T13:07:03;42.40;36.10
6102;DHT22;3081;50.584;7.032;2022-08-16T13:09:31;42.20;35.40
6102;DHT22;3081;50.584;7.032;2022-08-16T13:12:01;40.80;36.30
6102;DHT22;3081;50.584;7.032;2022-08-16T13:14:34;40.60;37.20
6102;DHT22;3081;50.584;7.032;2022-08-16T13:17:04;41.40;36.70
6102;DHT22;3081;50.584;7.032;2022-08-16T13:19:31;42.20;35.60
6102;DHT22;3081;50.584;7.032;2022-08-16T13:21:59;42.30;35.40
6102;DHT22;3081;50.584;7.032;2022-08-16T13:24:27;42.40;34.70
6102;DHT22;3081;50.584;7.032;2022-08-16T13:26:54;42.50;35.20
6102;DHT22;3081;50.584;7.032;2022-08-16T13:29:21;43.10;34.70
6102;DHT22;3081;50.584;7.032;2022-08-16T13:31:48;44.00;34.00
6102;DHT22;3081;50.584;7.032;2022-08-16T13:34:15;44.50;33.20
6102;DHT22;3081;50.584;7.032;2022-08-16T13:36:42;43.80;33.20
6102;DHT22;3081;50.584;7.032;2022-08-16T13:39:10;42.90;34.30
6102;DHT22;3081;50.584;7.032;2022-08-16T13:41:38;42.50;34.70
6102;DHT22;3081;50.584;7.032;2022-08-16T13:44:06;42.30;34.70
6102;DHT22;3081;50.584;7.032;2022-08-16T13:46:33;42.40;34.60
6102;DHT22;3081;50.584;7.032;2022-08-16T13:49:00;42.20;34.50
6102;DHT22;3081;50.584;7.032;2022-08-16T13:51:27;41.00;35.00
6102;DHT22;3081;50.584;7.032;2022-08-16T13:53:57;39.70;36.10
6102;DHT22;3081;50.584;7.032;2022-08-16T13:56:28;39.20;36.40
6102;DHT22;3081;50.584;7.032;2022-08-16T13:58:56;39.00;37.10
6102;DHT22;3081;50.584;7.032;2022-08-16T14:01:23;38.60;37.60
6102;DHT22;3081;50.584;7.032;2022-08-16T14:03:50;38.50;38.10
6102;DHT22;3081;50.584;7.032;2022-08-16T14:06:18;39.90;37.90
6102;DHT22;3081;50.584;7.032;2022-08-16T14:08:45;41.70;35.60
6102;DHT22;3081;50.584;7.032;2022-08-16T14:11:13;40.20;36.30
6102;DHT22;3081;50.584;7.032;2022-08-16T14:13:41;38.50;38.70
6102;DHT22;3081;50.584;7.032;2022-08-16T14:16:10;38.80;38.40
6102;DHT22;3081;50.584;7.032;2022-08-16T14:18:37;40.30;36.90
6102;DHT22;3081;50.584;7.032;2022-08-16T14:21:05;40.40;36.30
6102;DHT22;3081;50.584;7.032;2022-08-16T14:23:32;39.10;37.40
6102;DHT22;3081;50.584;7.032;2022-08-16T14:25:59;38.50;38.10
6102;DHT22;3081;50.584;7.032;2022-08-16T14:28:26;38.00;38.70
6102;DHT22;3081;50.584;7.032;2022-08-16T14:30:53;37.50;39.10
6102;DHT22;3081;50.584;7.032;2022-08-16T14:33:22;36.80;40.10
6102;DHT22;3081;50.584;7.032;2022-08-16T14:35:49;35.80;41.10
6102;DHT22;3081;50.584;7.032;2022-08-16T14:38:16;35.80;41.20
6102;DHT22;3081;50.584;7.032;2022-08-16T14:40:44;36.20;41.20
6102;DHT22;3081;50.584;7.032;2022-08-16T14:43:11;36.90;40.20
6102;DHT22;3081;50.584;7.032;2022-08-16T14:45:38;38.00;39.00
6102;DHT22;3081;50.584;7.032;2022-08-16T14:48:05;38.40;38.20
6102;DHT22;3081;50.584;7.032;2022-08-16T14:50:34;37.90;38.60
6102;DHT22;3081;50.584;7.032;2022-08-16T14:53:03;37.40;38.80
6102;DHT22;3081;50.584;7.032;2022-08-16T14:55:32;37.10;39.30
6102;DHT22;3081;50.584;7.032;2022-08-16T14:58:00;37.20;39.50
6102;DHT22;3081;50.584;7.032;2022-08-16T15:00:28;37.20;39.30
6102;DHT22;3081;50.584;7.032;2022-08-16T15:02:58;37.20;38.80
6102;DHT22;3081;50.584;7.032;2022-08-16T15:05:26;37.10;38.90
6102;DHT22;3081;50.584;7.032;2022-08-16T15:07:55;37.40;38.60
6102;DHT22;3081;50.584;7.032;2022-08-16T15:10:22;37.50;38.30
6102;DHT22;3081;50.584;7.032;2022-08-16T15:12:50;39.20;37.80
6102;DHT22;3081;50.584;7.032;2022-08-16T15:15:21;40.40;35.70
6102;DHT22;3081;50.584;7.032;2022-08-16T15:17:49;40.30;35.10
6102;DHT22;3081;50.584;7.032;2022-08-16T15:20:16;39.60;35.40
6102;DHT22;3081;50.584;7.032;2022-08-16T15:22:46;39.00;36.30
6102;DHT22;3081;50.584;7.032;2022-08-16T15:25:18;39.90;36.40
6102;DHT22;3081;50.584;7.032;2022-08-16T15:27:46;40.10;35.10
6102;DHT22;3081;50.584;7.032;2022-08-16T15:30:17;39.60;35.50
6102;DHT22;3081;50.584;7.032;2022-08-16T15:32:44;39.00;36.20
6102;DHT22;3081;50.584;7.032;2022-08-16T15:35:15;38.40;37.10
6102;DHT22;3081;50.584;7.032;2022-08-16T15:37:43;37.80;38.10
6102;DHT22;3081;50.584;7.032;2022-08-16T15:40:13;39.10;38.10
6102;DHT22;3081;50.584;7.032;2022-08-16T15:42:47;40.40;35.70
6102;DHT22;3081;50.584;7.032;2022-08-16T15:45:15;41.50;34.90
6102;DHT22;3081;50.584;7.032;2022-08-16T15:48:03;43.60;34.00
6102;DHT22;3081;50.584;7.032;2022-08-16T15:50:31;45.70;31.00
6102;DHT22;3081;50.584;7.032;2022-08-16T15:53:03;45.00;30.20
6102;DHT22;3081;50.584;7.032;2022-08-16T15:55:32;42.90;31.80
6102;DHT22;3081;50.584;7.032;2022-08-16T15:58:01;40.60;33.90
6102;DHT22;3081;50.584;7.032;2022-08-16T16:00:28;38.90;35.60
6102;DHT22;3081;50.584;7.032;2022-08-16T16:03:00;37.70;36.50
6102;DHT22;3081;50.584;7.032;2022-08-16T16:05:27;36.80;37.30
6102;DHT22;3081;50.584;7.032;2022-08-16T16:07:54;35.90;38.00